createdAt,value
2023-03-17T04:47:52.730Z,87.30
2023-03-17T04:50:37.584Z,87.00
2023-03-17T04:53:20.577Z,87.00
2023-03-17T04:56:11.197Z,87.00
2023-03-17T04:58:38.587Z,87.10
2023-03-17T05:01:18.008Z,87.60
2023-03-17T05:04:06.058Z,87.50
2023-03-17T05:06:57.700Z,86.90
2023-03-17T05:09:29.971Z,87.40
2023-03-17T05:15:07.151Z,87.10
2023-03-17T05:17:46.997Z,87.00
2023-03-17T05:26:49.111Z,86.70
2023-03-17T05:29:50.666Z,87.10
2023-03-17T05:32:24.229Z,87.00
2023-03-17T05:35:15.311Z,86.30
2023-03-17T05:38:00.207Z,87.10
2023-03-17T05:41:07.046Z,86.80
2023-03-17T05:43:40.644Z,87.10
2023-03-17T05:49:12.132Z,87.00
2023-03-17T05:52:15.608Z,86.60
2023-03-17T05:54:59.273Z,87.00
2023-03-17T06:01:08.327Z,87.20
2023-03-17T06:04:04.061Z,87.40
2023-03-17T06:06:46.260Z,87.30
2023-03-17T06:09:46.831Z,87.50
2023-03-17T06:12:27.619Z,87.80
2023-03-17T06:17:54.347Z,87.60
2023-03-17T06:20:21.975Z,88.10
2023-03-17T06:23:03.342Z,87.80
2023-03-17T06:25:32.132Z,88.00
2023-03-17T06:28:02.353Z,88.00
2023-03-17T06:30:31.168Z,88.30
2023-03-17T06:32:58.490Z,88.30
2023-03-17T06:35:25.590Z,88.40
2023-03-17T06:37:52.494Z,88.60
2023-03-17T06:40:19.422Z,88.70
2023-03-17T06:42:46.622Z,88.70
2023-03-17T06:45:14.197Z,88.70
2023-03-17T06:47:41.114Z,88.70
2023-03-17T06:50:09.655Z,88.60
2023-03-17T06:52:37.067Z,88.50
2023-03-17T06:55:04.488Z,88.70
2023-03-17T06:57:31.703Z,88.90
2023-03-17T06:59:58.656Z,89.20
2023-03-17T07:02:25.899Z,89.50
2023-03-17T07:04:53.300Z,89.70
2023-03-17T07:07:21.062Z,90.00
2023-03-17T07:09:48.070Z,90.00
2023-03-17T07:12:15.688Z,90.10
2023-03-17T07:14:42.587Z,90.20
2023-03-17T07:17:13.500Z,90.10
2023-03-17T07:19:40.892Z,90.10
2023-03-17T07:22:09.349Z,90.20
2023-03-17T07:24:36.268Z,90.30
2023-03-17T07:27:03.223Z,90.30
2023-03-17T07:29:32.326Z,90.30
2023-03-17T07:31:59.282Z,90.40
2023-03-17T07:34:26.559Z,90.40
2023-03-17T07:36:53.616Z,90.60
2023-03-17T07:39:20.961Z,90.70
2023-03-17T07:41:52.819Z,90.80
2023-03-17T07:44:19.850Z,90.80
2023-03-17T07:46:46.773Z,90.90
2023-03-17T07:49:13.960Z,90.90
2023-03-17T07:51:43.163Z,90.90
2023-03-17T07:54:14.818Z,91.00
2023-03-17T07:56:42.479Z,91.10
2023-03-17T07:59:10.774Z,90.80
2023-03-17T08:01:38.454Z,90.70
2023-03-17T08:04:05.925Z,90.50
2023-03-17T08:06:32.960Z,90.40
2023-03-17T08:08:59.947Z,90.20
2023-03-17T08:11:29.255Z,90.10
2023-03-17T08:13:56.418Z,90.10
2023-03-17T08:16:23.412Z,90.10
2023-03-17T08:18:50.548Z,90.10
2023-03-17T08:21:17.628Z,90.00
2023-03-17T08:23:44.617Z,90.00
2023-03-17T08:26:11.620Z,89.80
2023-03-17T08:28:38.549Z,89.80
2023-03-17T08:31:11.022Z,89.40
2023-03-17T08:33:39.967Z,89.20
2023-03-17T08:36:09.255Z,89.70
2023-03-17T08:38:36.958Z,89.30
2023-03-17T08:41:05.888Z,89.30
2023-03-17T08:43:33.773Z,89.80
2023-03-17T08:46:13.882Z,89.50
2023-03-17T08:48:41.327Z,89.50
2023-03-17T08:51:08.881Z,89.60
2023-03-17T08:53:35.990Z,89.60
2023-03-17T08:56:04.705Z,89.90
2023-03-17T08:58:31.919Z,89.80
2023-03-17T09:01:00.471Z,89.30
2023-03-17T09:03:27.480Z,89.30
2023-03-17T09:05:54.689Z,89.00
2023-03-17T09:08:21.838Z,89.30
2023-03-17T09:10:48.749Z,89.70
2023-03-17T09:13:17.563Z,89.10
2023-03-17T09:15:45.839Z,88.20
2023-03-17T09:18:12.892Z,87.90
2023-03-17T09:20:40.340Z,88.60
2023-03-17T09:23:08.353Z,87.80
2023-03-17T09:25:36.191Z,87.30
2023-03-17T09:28:03.643Z,87.80
2023-03-17T09:30:30.974Z,87.90
2023-03-17T09:32:58.348Z,88.30
2023-03-17T09:35:26.171Z,88.20
2023-03-17T09:37:53.091Z,88.60
2023-03-17T09:40:22.178Z,88.50
2023-03-17T09:42:58.482Z,88.20
2023-03-17T09:45:36.623Z,88.10
2023-03-17T09:48:06.845Z,88.20
2023-03-17T09:50:39.865Z,88.70
2023-03-17T09:53:12.433Z,88.80
2023-03-17T09:55:39.565Z,89.30
2023-03-17T09:58:09.894Z,88.60
2023-03-17T10:00:36.957Z,88.60
2023-03-17T10:03:06.247Z,88.80
2023-03-17T10:05:35.612Z,89.10
2023-03-17T10:08:10.857Z,89.10
2023-03-17T10:10:48.214Z,88.80
2023-03-17T10:13:17.975Z,88.90
2023-03-17T10:15:54.006Z,88.70
2023-03-17T10:18:24.219Z,89.10
2023-03-17T10:21:11.615Z,89.20
2023-03-17T10:23:39.426Z,88.50
2023-03-17T10:26:17.266Z,88.20
2023-03-17T10:28:44.400Z,88.40
2023-03-17T10:31:17.012Z,88.60
2023-03-17T10:33:44.679Z,87.80
2023-03-17T10:36:14.480Z,88.00
2023-03-17T10:38:41.425Z,87.50
2023-03-17T10:41:13.401Z,87.70
2023-03-17T10:43:50.614Z,87.80
2023-03-17T10:46:23.260Z,87.90
2023-03-17T10:48:54.803Z,88.10
2023-03-17T10:51:30.612Z,87.90
2023-03-17T10:53:59.948Z,86.90
2023-03-17T10:56:27.928Z,86.80
2023-03-17T10:58:55.547Z,86.90
2023-03-17T11:01:27.795Z,86.80
2023-03-17T11:03:55.866Z,87.30
2023-03-17T11:06:34.107Z,86.50
2023-03-17T11:09:05.861Z,86.80
2023-03-17T11:11:41.686Z,86.10
2023-03-17T11:14:13.401Z,86.20
2023-03-17T11:16:48.093Z,85.90
2023-03-17T11:19:16.740Z,86.10
2023-03-17T11:22:02.635Z,85.60
2023-03-17T11:24:32.132Z,85.60
2023-03-17T11:27:00.198Z,84.60
2023-03-17T11:29:27.095Z,85.10
2023-03-17T11:32:03.284Z,85.00
2023-03-17T11:34:49.486Z,84.10
2023-03-17T11:37:16.383Z,84.70
2023-03-17T11:39:49.560Z,84.00
2023-03-17T11:42:25.837Z,84.40
2023-03-17T11:45:19.042Z,85.20
2023-03-17T11:47:49.083Z,84.80
2023-03-17T11:50:30.650Z,83.60
2023-03-17T11:53:04.109Z,83.80
2023-03-17T11:55:38.208Z,83.80
2023-03-17T11:58:10.521Z,83.30
2023-03-17T12:00:45.814Z,83.00
2023-03-17T12:03:23.163Z,82.60
2023-03-17T12:05:54.761Z,82.50
2023-03-17T12:08:28.157Z,82.50
2023-03-17T12:10:57.159Z,82.10
2023-03-17T12:13:30.074Z,81.90
2023-03-17T12:15:59.838Z,83.60
2023-03-17T12:18:31.004Z,81.90
2023-03-17T12:21:00.195Z,82.00
2023-03-17T12:23:39.578Z,81.70
2023-03-17T12:26:13.820Z,81.60
2023-03-17T12:28:45.104Z,81.60
2023-03-17T12:31:14.059Z,82.10
2023-03-17T12:33:49.622Z,81.00
2023-03-17T12:36:17.530Z,81.70
2023-03-17T12:38:50.493Z,81.90
2023-03-17T12:41:31.453Z,81.50
2023-03-17T12:44:13.488Z,81.70
2023-03-17T12:46:40.514Z,82.60
2023-03-17T12:49:25.934Z,81.90
2023-03-17T12:51:56.967Z,83.00
2023-03-17T12:54:28.991Z,83.10
2023-03-17T12:57:02.194Z,82.40
2023-03-17T12:59:31.272Z,83.00
2023-03-17T13:02:06.177Z,82.70
2023-03-17T13:04:37.560Z,82.50
2023-03-17T13:07:05.278Z,81.90
2023-03-17T13:09:32.320Z,82.50
2023-03-17T13:12:00.467Z,82.50
2023-03-17T13:14:47.708Z,82.70
2023-03-17T13:17:17.851Z,83.10
2023-03-17T13:19:55.957Z,82.30
2023-03-17T13:22:22.879Z,82.90
2023-03-17T13:24:53.361Z,82.20
2023-03-17T13:27:20.356Z,83.20
2023-03-17T13:29:47.461Z,82.60
2023-03-17T13:32:17.120Z,82.60
2023-03-17T13:34:45.468Z,82.30
2023-03-17T13:37:12.530Z,82.30
2023-03-17T13:39:49.767Z,82.50
2023-03-17T13:42:19.388Z,80.70
2023-03-17T13:44:53.954Z,80.00
2023-03-17T13:47:24.211Z,80.30
2023-03-17T13:49:57.151Z,80.00
2023-03-17T13:52:27.863Z,80.90
2023-03-17T13:55:13.482Z,80.70
2023-03-17T13:57:40.424Z,81.10
2023-03-17T14:00:07.287Z,81.00
2023-03-17T14:02:38.474Z,81.10
2023-03-17T14:05:07.839Z,79.80
2023-03-17T14:07:47.852Z,80.10
2023-03-17T14:10:22.087Z,80.90
2023-03-17T14:12:51.118Z,80.00
2023-03-17T14:15:21.884Z,79.70
2023-03-17T14:18:11.863Z,79.70
2023-03-17T14:20:38.808Z,80.60
2023-03-17T14:23:06.584Z,80.10
2023-03-17T14:25:34.803Z,79.60
2023-03-17T14:28:03.944Z,80.50
2023-03-17T14:30:33.095Z,80.20
2023-03-17T14:33:02.934Z,79.80
2023-03-17T14:35:34.925Z,79.90
2023-03-17T14:38:02.167Z,80.80
2023-03-17T14:40:32.335Z,81.50
2023-03-17T14:42:59.299Z,81.20
2023-03-17T14:45:31.065Z,81.00
2023-03-17T14:47:58.220Z,81.30
2023-03-17T14:50:25.345Z,81.40
2023-03-17T14:52:52.433Z,81.80
2023-03-17T14:55:19.830Z,81.90
2023-03-17T14:57:51.525Z,81.10
2023-03-17T15:00:34.164Z,81.50
2023-03-17T15:03:03.432Z,81.70
2023-03-17T15:05:37.573Z,82.00
2023-03-17T15:08:24.442Z,81.70
2023-03-17T15:10:51.333Z,82.20
2023-03-17T15:13:18.238Z,81.70
2023-03-17T15:15:45.396Z,82.10
2023-03-17T15:18:13.904Z,82.00
2023-03-17T15:20:43.022Z,82.40
2023-03-17T15:23:20.610Z,82.30
2023-03-17T15:25:55.635Z,82.70
2023-03-17T15:28:26.410Z,83.70
2023-03-17T15:30:55.043Z,82.30
2023-03-17T15:33:29.698Z,81.80
2023-03-17T15:35:56.917Z,81.30
2023-03-17T15:38:24.626Z,82.00
2023-03-17T15:40:51.518Z,81.70
2023-03-17T15:43:19.154Z,81.40
2023-03-17T15:45:46.251Z,81.00
2023-03-17T15:48:20.152Z,80.90
2023-03-17T15:50:48.267Z,80.70
2023-03-17T15:53:15.400Z,80.30
2023-03-17T15:55:42.394Z,81.80
2023-03-17T15:58:09.299Z,80.60
2023-03-17T16:00:36.442Z,79.50
2023-03-17T16:03:21.895Z,79.40
2023-03-17T16:05:48.942Z,79.40
2023-03-17T16:08:17.808Z,79.00
2023-03-17T16:10:45.135Z,79.20
2023-03-17T16:13:12.415Z,79.40
2023-03-17T16:15:43.506Z,79.20
2023-03-17T16:18:13.700Z,79.50
2023-03-17T16:20:41.781Z,81.70
2023-03-17T16:23:12.488Z,80.20
2023-03-17T16:25:39.474Z,80.80
2023-03-17T16:28:35.533Z,80.80
2023-03-17T16:31:04.380Z,80.80
2023-03-17T16:33:35.660Z,81.00
2023-03-17T16:36:02.615Z,81.20
2023-03-17T16:38:30.544Z,81.00
2023-03-17T16:41:01.759Z,82.40
2023-03-17T16:43:29.725Z,83.70
2023-03-17T16:46:02.185Z,85.30
2023-03-17T16:48:29.727Z,86.10
2023-03-17T16:50:57.174Z,86.90
2023-03-17T16:53:24.900Z,87.40
2023-03-17T16:55:53.072Z,87.90
2023-03-17T16:58:22.401Z,87.60
2023-03-17T17:00:50.231Z,87.90
2023-03-17T17:03:17.292Z,87.80
2023-03-17T17:05:44.432Z,87.90
2023-03-17T17:08:11.458Z,88.20
2023-03-17T17:10:38.967Z,88.40
2023-03-17T17:13:07.824Z,88.40
2023-03-17T17:15:35.508Z,87.30
2023-03-17T17:18:07.023Z,87.20
2023-03-17T17:20:35.998Z,87.40
2023-03-17T17:23:03.401Z,87.90
2023-03-17T17:25:30.589Z,87.50
2023-03-17T17:27:58.317Z,87.00
2023-03-17T17:30:28.004Z,87.60
2023-03-17T17:32:57.062Z,87.30
2023-03-17T17:35:25.213Z,88.30
2023-03-17T17:37:52.287Z,88.00
2023-03-17T17:40:20.283Z,88.30
2023-03-17T17:42:47.588Z,88.70
2023-03-17T17:45:15.296Z,88.80
2023-03-17T17:47:42.403Z,89.00
2023-03-17T17:50:11.557Z,89.00
2023-03-17T17:52:38.497Z,88.70
2023-03-17T17:55:05.520Z,88.70
2023-03-17T17:57:32.471Z,88.80
2023-03-17T17:59:59.502Z,88.30
2023-03-17T18:02:26.490Z,88.80
2023-03-17T18:04:53.618Z,88.30
2023-03-17T18:07:20.577Z,89.10
2023-03-17T18:09:47.445Z,89.50
2023-03-17T18:12:14.420Z,89.60
2023-03-17T18:14:41.381Z,89.50
2023-03-17T18:17:08.915Z,89.80
2023-03-17T18:19:35.815Z,89.40
2023-03-17T18:22:03.649Z,89.40
2023-03-17T18:24:31.131Z,89.30
2023-03-17T18:26:58.120Z,89.20
2023-03-17T18:29:25.157Z,89.40
2023-03-17T18:31:53.612Z,89.20
2023-03-17T18:34:25.915Z,89.70
2023-03-17T18:36:54.046Z,89.60
2023-03-17T18:39:21.064Z,89.50
2023-03-17T18:41:48.416Z,89.20
2023-03-17T18:44:15.706Z,89.50
2023-03-17T18:46:42.779Z,89.70
2023-03-17T18:49:09.794Z,89.70
2023-03-17T18:51:36.727Z,89.60
2023-03-17T18:54:04.726Z,89.90
2023-03-17T18:56:32.081Z,89.60
2023-03-17T18:58:59.209Z,89.80
2023-03-17T19:01:27.136Z,90.00
2023-03-17T19:03:54.134Z,90.00
2023-03-17T19:06:21.918Z,90.50
2023-03-17T19:08:49.235Z,90.60
2023-03-17T19:11:18.306Z,90.70
2023-03-17T19:13:45.588Z,90.90
2023-03-17T19:16:13.111Z,90.90
2023-03-17T19:18:42.439Z,90.80
2023-03-17T19:21:09.806Z,90.70
2023-03-17T19:23:38.223Z,90.80
2023-03-17T19:26:05.456Z,90.60
2023-03-17T19:28:32.861Z,90.60
2023-03-17T19:31:00.019Z,90.40
2023-03-17T19:33:28.765Z,90.60
2023-03-17T19:35:57.163Z,90.70
2023-03-17T19:38:24.387Z,90.70
2023-03-17T19:40:51.808Z,90.70
2023-03-17T19:43:36.754Z,90.90
2023-03-17T19:46:05.826Z,91.10
2023-03-17T19:48:33.459Z,91.00
2023-03-17T19:51:01.496Z,91.10
2023-03-17T19:53:28.488Z,91.10
2023-03-17T19:55:56.675Z,90.90
2023-03-17T19:58:23.778Z,91.10
2023-03-17T20:00:51.459Z,91.10
2023-03-17T20:03:18.789Z,91.10
2023-03-17T20:05:46.416Z,91.10
2023-03-17T20:08:15.254Z,90.90
2023-03-17T20:10:42.180Z,90.90
2023-03-17T20:13:09.414Z,90.80
2023-03-17T20:15:36.664Z,90.80
2023-03-17T20:18:03.900Z,90.70
2023-03-17T20:20:31.338Z,90.80
2023-03-17T20:22:58.392Z,90.80
2023-03-17T20:25:25.449Z,90.80
2023-03-17T20:27:53.313Z,90.70
2023-03-17T20:30:20.374Z,90.80
2023-03-17T20:32:47.322Z,90.90
2023-03-17T20:35:14.322Z,90.90
2023-03-17T20:37:41.386Z,90.90
2023-03-17T20:40:10.782Z,90.90
2023-03-17T20:42:37.825Z,90.70
2023-03-17T20:45:05.006Z,90.70
2023-03-17T20:47:31.994Z,90.70
2023-03-17T20:49:59.417Z,90.80
2023-03-17T20:52:29.973Z,90.90
2023-03-17T20:54:59.377Z,91.30
2023-03-17T20:57:26.383Z,91.20
2023-03-17T20:59:53.306Z,91.20
2023-03-17T21:02:20.797Z,91.30
2023-03-17T21:04:48.889Z,91.30
2023-03-17T21:07:16.899Z,91.30
2023-03-17T21:09:44.980Z,91.40
2023-03-17T21:12:16.073Z,91.40
2023-03-17T21:14:43.055Z,91.40
2023-03-17T21:17:10.714Z,91.30
2023-03-17T21:19:37.845Z,91.40
2023-03-17T21:22:05.267Z,91.40
2023-03-17T21:24:33.667Z,91.40
2023-03-17T21:27:05.108Z,91.40
2023-03-17T21:29:33.167Z,91.50
2023-03-17T21:32:00.976Z,91.50
2023-03-17T21:34:28.794Z,91.50
2023-03-17T21:36:57.132Z,91.40
2023-03-17T21:39:24.695Z,91.50
2023-03-17T21:41:52.163Z,91.50
2023-03-17T21:44:19.212Z,91.50
2023-03-17T21:46:47.745Z,91.50
2023-03-17T21:49:16.283Z,91.60
2023-03-17T21:51:44.533Z,91.50
2023-03-17T21:54:11.839Z,91.60
2023-03-17T21:56:39.898Z,91.60
2023-03-17T21:59:10.820Z,91.50
2023-03-17T22:01:38.966Z,91.50
2023-03-17T22:04:06.092Z,91.50
2023-03-17T22:06:33.449Z,91.40
2023-03-17T22:09:00.455Z,91.50
2023-03-17T22:11:27.368Z,91.40
2023-03-17T22:13:54.364Z,91.30
2023-03-17T22:16:21.644Z,91.20
2023-03-17T22:18:48.680Z,91.20
2023-03-17T22:21:15.609Z,91.20
2023-03-17T22:23:42.618Z,91.20
2023-03-17T22:26:12.373Z,91.20
2023-03-17T22:28:40.652Z,91.10
2023-03-17T22:31:11.448Z,91.20
2023-03-17T22:33:39.156Z,91.30
2023-03-17T22:36:06.309Z,91.30
2023-03-17T22:38:34.986Z,91.40
2023-03-17T22:41:02.938Z,91.30
2023-03-17T22:43:29.989Z,91.30
2023-03-17T22:45:56.954Z,91.40
2023-03-17T22:48:23.961Z,91.30
2023-03-17T22:50:51.055Z,91.40
2023-03-17T22:53:18.021Z,91.40
2023-03-17T22:55:44.953Z,91.40
2023-03-17T22:58:12.079Z,91.40
2023-03-17T23:00:40.202Z,91.50
2023-03-17T23:03:07.297Z,91.40
2023-03-17T23:05:34.216Z,91.40
2023-03-17T23:08:01.490Z,91.30
2023-03-17T23:10:28.531Z,91.40
2023-03-17T23:12:55.520Z,91.40
2023-03-17T23:15:22.654Z,91.40
2023-03-17T23:17:49.744Z,91.40
2023-03-17T23:20:17.017Z,91.30
2023-03-17T23:22:43.936Z,91.40
2023-03-17T23:25:13.524Z,91.40
2023-03-17T23:27:40.906Z,91.40
2023-03-17T23:30:10.110Z,91.60
2023-03-17T23:32:40.599Z,91.60
2023-03-17T23:35:08.463Z,91.70
2023-03-17T23:37:36.032Z,91.60
2023-03-17T23:40:04.329Z,91.70
2023-03-17T23:42:31.338Z,91.60
2023-03-17T23:44:59.220Z,91.60
2023-03-17T23:47:26.987Z,91.80
2023-03-17T23:49:54.016Z,91.80
2023-03-17T23:52:21.956Z,91.70
2023-03-17T23:54:49.092Z,91.70
2023-03-17T23:57:16.092Z,91.70
2023-03-17T23:59:43.402Z,91.70
